Portada
METAR-TAF:

METAR-TAF

Aeroports :

Aeroport de Menorca

Menorca, Espanya

latitud: 39-52N, longitud: 004-14E, altitud: 87 m

Observació

L'informe es va fer fa 31 minuts, a les 21:00 UTC
Vent 3 kt del Nord
Temperatura 19°C
Humitat 64%
Pressió 1017 hPa
Visibilitat 10 km o més
sense núvols per sota de 1500 mi sense presència de cumulonimbus.

METAR: LEMH 232100Z 01003KT CAVOK 19/12 Q1017

Hora: 23:31 (21:31 UTC)

Pronòstic

L'informe es va fer fa 1 hora i 31 minuts, a les 20:00 UTC
Pronòstic vàlid del 23 a les 21 UTC al 24 a les 21 UTC
Vent 5 kt del Nord/Nord-Est
Visibilitat 10 km o més
Escasses núvols a una alçada de 4000 ft
Probabilitat 30% :
Temporalment
l' 23 a les 23 UTC al 24 a les 05 UTC
Visibilitat: 4000 m
Cel ennuvolat a una alçada de 1400 ft
boirina
Evolucionant progressivament
l' 24 a les 06 UTC al 24 a les 08 UTC
Vent 10 kt del Nord-Est

TAF: LEMH 232000Z 2321/2421 02005KT 9999 FEW040 TX28/2412Z TN18/2405Z PROB30 TEMPO 2323/2405 4000 BR BKN014 BECMG 2406/2408 04010KT

Observacions i pronòstics meteorològics de més de 4000 aeroports (METAR i TAF).

Les estacions disponibles són els punts grocs i vermells al mapa.

Posi el ratolí al punt desitjat per veure el nom de l'estació.

Feu clic per veure les observacions i els pronòstics meteorològics.

Per canviar el mapa: feu clic els botons verds amb una creu de color negre per apropar; al botó verd amb un guió per allunyar la imatge; o en les fletxes verdes per a mapes adjacents.


METAR-TAF: